sensor_id;sensor_type;location;lat;lon;timestamp;P1;durP1;ratioP1;P2;durP2;ratioP2
25846;SDS011;13676;50.168;8.568;2022-12-10T00:01:47;22.90;;;15.73;;
25846;SDS011;13676;50.168;8.568;2022-12-10T00:04:13;25.00;;;16.48;;
25846;SDS011;13676;50.168;8.568;2022-12-10T00:06:39;23.33;;;16.88;;
25846;SDS011;13676;50.168;8.568;2022-12-10T00:09:07;21.70;;;15.93;;
25846;SDS011;13676;50.168;8.568;2022-12-10T00:11:36;23.65;;;16.25;;
25846;SDS011;13676;50.168;8.568;2022-12-10T00:14:01;24.45;;;17.27;;
25846;SDS011;13676;50.168;8.568;2022-12-10T00:16:27;26.67;;;18.55;;
25846;SDS011;13676;50.168;8.568;2022-12-10T00:18:53;23.15;;;16.42;;
25846;SDS011;13676;50.168;8.568;2022-12-10T00:21:20;24.35;;;17.08;;
25846;SDS011;13676;50.168;8.568;2022-12-10T00:23:47;27.25;;;18.58;;
25846;SDS011;13676;50.168;8.568;2022-12-10T00:26:14;27.23;;;19.00;;
25846;SDS011;13676;50.168;8.568;2022-12-10T00:28:47;22.75;;;16.02;;
25846;SDS011;13676;50.168;8.568;2022-12-10T00:31:15;27.52;;;19.25;;
25846;SDS011;13676;50.168;8.568;2022-12-10T00:33:44;27.67;;;19.50;;
25846;SDS011;13676;50.168;8.568;2022-12-10T00:36:11;26.17;;;18.08;;
25846;SDS011;13676;50.168;8.568;2022-12-10T00:38:39;24.45;;;17.88;;
25846;SDS011;13676;50.168;8.568;2022-12-10T00:41:05;25.45;;;16.67;;
25846;SDS011;13676;50.168;8.568;2022-12-10T00:43:31;22.33;;;16.25;;
25846;SDS011;13676;50.168;8.568;2022-12-10T00:45:56;22.77;;;15.82;;
25846;SDS011;13676;50.168;8.568;2022-12-10T00:48:22;23.63;;;16.67;;
25846;SDS011;13676;50.168;8.568;2022-12-10T00:50:58;23.65;;;16.45;;
25846;SDS011;13676;50.168;8.568;2022-12-10T00:53:26;25.85;;;17.42;;
25846;SDS011;13676;50.168;8.568;2022-12-10T00:55:52;25.88;;;18.02;;
25846;SDS011;13676;50.168;8.568;2022-12-10T00:58:18;25.00;;;17.85;;
25846;SDS011;13676;50.168;8.568;2022-12-10T01:00:44;23.42;;;15.80;;
25846;SDS011;13676;50.168;8.568;2022-12-10T01:03:09;22.92;;;17.42;;
25846;SDS011;13676;50.168;8.568;2022-12-10T01:05:35;24.92;;;17.10;;
25846;SDS011;13676;50.168;8.568;2022-12-10T01:08:00;22.85;;;16.48;;
25846;SDS011;13676;50.168;8.568;2022-12-10T01:10:26;23.00;;;17.05;;
25846;SDS011;13676;50.168;8.568;2022-12-10T01:12:51;23.67;;;15.95;;
25846;SDS011;13676;50.168;8.568;2022-12-10T01:15:16;21.92;;;15.23;;
25846;SDS011;13676;50.168;8.568;2022-12-10T01:17:42;21.05;;;15.32;;
25846;SDS011;13676;50.168;8.568;2022-12-10T01:20:07;23.60;;;15.65;;
25846;SDS011;13676;50.168;8.568;2022-12-10T01:22:33;22.48;;;14.70;;
25846;SDS011;13676;50.168;8.568;2022-12-10T01:24:58;24.60;;;16.40;;
25846;SDS011;13676;50.168;8.568;2022-12-10T01:27:23;21.95;;;15.63;;
25846;SDS011;13676;50.168;8.568;2022-12-10T01:29:49;23.58;;;16.17;;
25846;SDS011;13676;50.168;8.568;2022-12-10T01:32:14;22.70;;;16.10;;
25846;SDS011;13676;50.168;8.568;2022-12-10T01:34:39;23.63;;;16.00;;
25846;SDS011;13676;50.168;8.568;2022-12-10T01:37:05;20.10;;;15.10;;
25846;SDS011;13676;50.168;8.568;2022-12-10T01:39:30;18.45;;;13.50;;
25846;SDS011;13676;50.168;8.568;2022-12-10T01:41:59;16.55;;;11.73;;
25846;SDS011;13676;50.168;8.568;2022-12-10T01:46:51;17.92;;;12.95;;
25846;SDS011;13676;50.168;8.568;2022-12-10T01:49:22;16.08;;;11.43;;
25846;SDS011;13676;50.168;8.568;2022-12-10T01:51:52;17.05;;;12.35;;
25846;SDS011;13676;50.168;8.568;2022-12-10T01:54:24;17.15;;;12.05;;
25846;SDS011;13676;50.168;8.568;2022-12-10T01:56:59;16.63;;;11.93;;
25846;SDS011;13676;50.168;8.568;2022-12-10T01:59:25;17.20;;;12.18;;
25846;SDS011;13676;50.168;8.568;2022-12-10T02:04:30;15.27;;;11.32;;
25846;SDS011;13676;50.168;8.568;2022-12-10T02:07:02;18.52;;;12.35;;
25846;SDS011;13676;50.168;8.568;2022-12-10T02:09:58;17.02;;;11.50;;
25846;SDS011;13676;50.168;8.568;2022-12-10T02:12:34;15.00;;;10.45;;
25846;SDS011;13676;50.168;8.568;2022-12-10T02:15:03;17.08;;;11.02;;
25846;SDS011;13676;50.168;8.568;2022-12-10T02:22:44;13.43;;;10.00;;
25846;SDS011;13676;50.168;8.568;2022-12-10T02:25:12;14.52;;;9.32;;
25846;SDS011;13676;50.168;8.568;2022-12-10T02:27:45;14.50;;;10.02;;
25846;SDS011;13676;50.168;8.568;2022-12-10T02:30:11;16.25;;;11.25;;
25846;SDS011;13676;50.168;8.568;2022-12-10T02:32:37;15.75;;;10.38;;
25846;SDS011;13676;50.168;8.568;2022-12-10T02:35:08;15.18;;;10.55;;
25846;SDS011;13676;50.168;8.568;2022-12-10T02:37:38;16.17;;;10.57;;
25846;SDS011;13676;50.168;8.568;2022-12-10T02:40:08;15.63;;;10.73;;
25846;SDS011;13676;50.168;8.568;2022-12-10T02:42:37;15.73;;;11.73;;
25846;SDS011;13676;50.168;8.568;2022-12-10T02:45:04;15.57;;;11.38;;
25846;SDS011;13676;50.168;8.568;2022-12-10T02:47:29;17.00;;;11.15;;
25846;SDS011;13676;50.168;8.568;2022-12-10T02:49:55;18.15;;;12.30;;
25846;SDS011;13676;50.168;8.568;2022-12-10T02:52:22;14.75;;;10.48;;
25846;SDS011;13676;50.168;8.568;2022-12-10T02:54:48;17.00;;;11.00;;
25846;SDS011;13676;50.168;8.568;2022-12-10T03:07:48;17.90;;;11.43;;
25846;SDS011;13676;50.168;8.568;2022-12-10T03:12:56;15.35;;;9.75;;
25846;SDS011;13676;50.168;8.568;2022-12-10T03:15:24;17.35;;;10.05;;
25846;SDS011;13676;50.168;8.568;2022-12-10T03:17:51;13.48;;;9.65;;
25846;SDS011;13676;50.168;8.568;2022-12-10T03:20:16;14.40;;;10.25;;
25846;SDS011;13676;50.168;8.568;2022-12-10T03:22:43;14.15;;;9.73;;
25846;SDS011;13676;50.168;8.568;2022-12-10T03:25:10;13.15;;;9.73;;
25846;SDS011;13676;50.168;8.568;2022-12-10T03:27:38;12.27;;;9.55;;
25846;SDS011;13676;50.168;8.568;2022-12-10T03:30:04;14.85;;;10.00;;
25846;SDS011;13676;50.168;8.568;2022-12-10T03:32:30;12.43;;;9.35;;
25846;SDS011;13676;50.168;8.568;2022-12-10T03:34:56;12.30;;;9.02;;
25846;SDS011;13676;50.168;8.568;2022-12-10T03:37:23;12.75;;;9.50;;
25846;SDS011;13676;50.168;8.568;2022-12-10T03:39:49;13.25;;;9.25;;
25846;SDS011;13676;50.168;8.568;2022-12-10T03:42:14;13.15;;;9.15;;
25846;SDS011;13676;50.168;8.568;2022-12-10T03:44:40;13.85;;;9.30;;
25846;SDS011;13676;50.168;8.568;2022-12-10T03:47:06;13.15;;;9.48;;
25846;SDS011;13676;50.168;8.568;2022-12-10T03:49:34;14.82;;;10.38;;
25846;SDS011;13676;50.168;8.568;2022-12-10T03:52:00;13.60;;;9.85;;
25846;SDS011;13676;50.168;8.568;2022-12-10T03:54:25;18.02;;;10.15;;
25846;SDS011;13676;50.168;8.568;2022-12-10T03:56:51;17.75;;;10.73;;
25846;SDS011;13676;50.168;8.568;2022-12-10T03:59:16;15.15;;;9.52;;
25846;SDS011;13676;50.168;8.568;2022-12-10T04:01:41;14.85;;;9.90;;
25846;SDS011;13676;50.168;8.568;2022-12-10T04:04:07;13.45;;;9.70;;
25846;SDS011;13676;50.168;8.568;2022-12-10T04:06:33;16.55;;;11.25;;
25846;SDS011;13676;50.168;8.568;2022-12-10T04:08:58;13.57;;;9.75;;
25846;SDS011;13676;50.168;8.568;2022-12-10T04:11:24;19.02;;;10.90;;
25846;SDS011;13676;50.168;8.568;2022-12-10T04:13:50;13.75;;;10.18;;
25846;SDS011;13676;50.168;8.568;2022-12-10T04:16:35;14.38;;;10.43;;
25846;SDS011;13676;50.168;8.568;2022-12-10T04:19:09;18.42;;;11.45;;
25846;SDS011;13676;50.168;8.568;2022-12-10T04:21:36;18.02;;;10.32;;
25846;SDS011;13676;50.168;8.568;2022-12-10T04:24:21;15.13;;;11.18;;
25846;SDS011;13676;50.168;8.568;2022-12-10T04:27:10;16.80;;;10.93;;
25846;SDS011;13676;50.168;8.568;2022-12-10T04:29:38;15.90;;;11.10;;
25846;SDS011;13676;50.168;8.568;2022-12-10T04:32:04;17.35;;;11.30;;
25846;SDS011;13676;50.168;8.568;2022-12-10T04:34:29;14.80;;;10.00;;
25846;SDS011;13676;50.168;8.568;2022-12-10T04:36:56;15.48;;;10.70;;
25846;SDS011;13676;50.168;8.568;2022-12-10T04:39:22;15.00;;;10.65;;
25846;SDS011;13676;50.168;8.568;2022-12-10T04:41:48;16.33;;;12.32;;
25846;SDS011;13676;50.168;8.568;2022-12-10T04:44:14;17.45;;;11.27;;
25846;SDS011;13676;50.168;8.568;2022-12-10T04:46:40;18.50;;;11.07;;
25846;SDS011;13676;50.168;8.568;2022-12-10T04:49:05;15.43;;;11.30;;
25846;SDS011;13676;50.168;8.568;2022-12-10T04:51:31;17.33;;;11.18;;
25846;SDS011;13676;50.168;8.568;2022-12-10T04:53:57;14.77;;;11.00;;
25846;SDS011;13676;50.168;8.568;2022-12-10T04:56:22;19.33;;;11.38;;
25846;SDS011;13676;50.168;8.568;2022-12-10T04:58:48;15.75;;;10.98;;
25846;SDS011;13676;50.168;8.568;2022-12-10T05:01:13;15.52;;;10.85;;
25846;SDS011;13676;50.168;8.568;2022-12-10T05:03:39;17.88;;;11.75;;
25846;SDS011;13676;50.168;8.568;2022-12-10T05:06:05;17.30;;;11.38;;
25846;SDS011;13676;50.168;8.568;2022-12-10T05:11:02;16.05;;;10.65;;
25846;SDS011;13676;50.168;8.568;2022-12-10T05:13:31;16.55;;;11.45;;
25846;SDS011;13676;50.168;8.568;2022-12-10T05:15:56;17.00;;;12.32;;
25846;SDS011;13676;50.168;8.568;2022-12-10T05:18:22;18.85;;;10.63;;
25846;SDS011;13676;50.168;8.568;2022-12-10T05:20:47;13.50;;;10.55;;
25846;SDS011;13676;50.168;8.568;2022-12-10T05:23:13;15.63;;;11.07;;
25846;SDS011;13676;50.168;8.568;2022-12-10T05:26:00;15.18;;;9.73;;
25846;SDS011;13676;50.168;8.568;2022-12-10T05:28:30;14.15;;;9.90;;
25846;SDS011;13676;50.168;8.568;2022-12-10T05:30:57;14.55;;;10.07;;
25846;SDS011;13676;50.168;8.568;2022-12-10T05:33:23;13.23;;;10.10;;
25846;SDS011;13676;50.168;8.568;2022-12-10T05:35:59;15.27;;;10.43;;
25846;SDS011;13676;50.168;8.568;2022-12-10T05:38:26;13.23;;;9.40;;
25846;SDS011;13676;50.168;8.568;2022-12-10T05:40:52;11.88;;;8.10;;
25846;SDS011;13676;50.168;8.568;2022-12-10T05:43:18;11.80;;;8.25;;
25846;SDS011;13676;50.168;8.568;2022-12-10T05:45:43;13.07;;;9.27;;
25846;SDS011;13676;50.168;8.568;2022-12-10T05:48:10;13.80;;;8.95;;
25846;SDS011;13676;50.168;8.568;2022-12-10T05:50:36;12.35;;;8.93;;
25846;SDS011;13676;50.168;8.568;2022-12-10T05:53:01;11.27;;;8.02;;
25846;SDS011;13676;50.168;8.568;2022-12-10T05:55:27;11.18;;;8.13;;
25846;SDS011;13676;50.168;8.568;2022-12-10T05:57:54;8.57;;;6.40;;
25846;SDS011;13676;50.168;8.568;2022-12-10T06:00:20;14.13;;;9.73;;
25846;SDS011;13676;50.168;8.568;2022-12-10T06:02:46;13.25;;;9.82;;
25846;SDS011;13676;50.168;8.568;2022-12-10T06:05:11;12.32;;;8.90;;
25846;SDS011;13676;50.168;8.568;2022-12-10T06:07:36;13.32;;;9.70;;
25846;SDS011;13676;50.168;8.568;2022-12-10T06:10:02;14.82;;;9.40;;
25846;SDS011;13676;50.168;8.568;2022-12-10T06:12:28;14.75;;;9.95;;
25846;SDS011;13676;50.168;8.568;2022-12-10T06:14:53;14.55;;;9.57;;
25846;SDS011;13676;50.168;8.568;2022-12-10T06:17:18;14.48;;;10.13;;
25846;SDS011;13676;50.168;8.568;2022-12-10T06:19:44;13.48;;;9.88;;
25846;SDS011;13676;50.168;8.568;2022-12-10T06:22:09;15.05;;;11.02;;
25846;SDS011;13676;50.168;8.568;2022-12-10T06:24:34;16.25;;;10.88;;
25846;SDS011;13676;50.168;8.568;2022-12-10T06:27:00;16.17;;;12.38;;
25846;SDS011;13676;50.168;8.568;2022-12-10T06:29:25;15.93;;;12.65;;
25846;SDS011;13676;50.168;8.568;2022-12-10T06:31:50;24.20;;;11.93;;
25846;SDS011;13676;50.168;8.568;2022-12-10T06:34:16;16.52;;;12.18;;
25846;SDS011;13676;50.168;8.568;2022-12-10T06:36:41;18.83;;;12.85;;
25846;SDS011;13676;50.168;8.568;2022-12-10T06:39:06;14.60;;;10.70;;
25846;SDS011;13676;50.168;8.568;2022-12-10T06:41:32;18.77;;;12.93;;
25846;SDS011;13676;50.168;8.568;2022-12-10T06:43:57;20.50;;;12.45;;
25846;SDS011;13676;50.168;8.568;2022-12-10T06:46:23;22.65;;;15.13;;
25846;SDS011;13676;50.168;8.568;2022-12-10T06:48:49;19.65;;;12.70;;
25846;SDS011;13676;50.168;8.568;2022-12-10T06:51:15;18.88;;;12.25;;
25846;SDS011;13676;50.168;8.568;2022-12-10T06:53:42;15.70;;;11.45;;
25846;SDS011;13676;50.168;8.568;2022-12-10T06:56:11;17.63;;;12.38;;
25846;SDS011;13676;50.168;8.568;2022-12-10T06:58:38;18.48;;;12.40;;
25846;SDS011;13676;50.168;8.568;2022-12-10T07:01:09;18.63;;;13.65;;
25846;SDS011;13676;50.168;8.568;2022-12-10T07:03:42;18.02;;;13.55;;
25846;SDS011;13676;50.168;8.568;2022-12-10T07:06:08;15.68;;;11.25;;
25846;SDS011;13676;50.168;8.568;2022-12-10T07:08:35;16.97;;;11.37;;
25846;SDS011;13676;50.168;8.568;2022-12-10T07:11:04;17.65;;;10.88;;
25846;SDS011;13676;50.168;8.568;2022-12-10T07:13:34;15.63;;;11.40;;
25846;SDS011;13676;50.168;8.568;2022-12-10T07:16:00;14.40;;;10.32;;
25846;SDS011;13676;50.168;8.568;2022-12-10T07:18:26;15.23;;;9.73;;
25846;SDS011;13676;50.168;8.568;2022-12-10T07:20:52;16.80;;;9.35;;
25846;SDS011;13676;50.168;8.568;2022-12-10T07:23:17;12.00;;;8.73;;
25846;SDS011;13676;50.168;8.568;2022-12-10T07:25:43;12.55;;;8.95;;
25846;SDS011;13676;50.168;8.568;2022-12-10T07:28:08;11.30;;;8.45;;
25846;SDS011;13676;50.168;8.568;2022-12-10T07:30:34;12.48;;;8.15;;
25846;SDS011;13676;50.168;8.568;2022-12-10T07:32:59;17.85;;;10.10;;
25846;SDS011;13676;50.168;8.568;2022-12-10T07:35:24;15.23;;;9.93;;
25846;SDS011;13676;50.168;8.568;2022-12-10T07:37:50;17.52;;;10.70;;
25846;SDS011;13676;50.168;8.568;2022-12-10T07:40:15;16.85;;;11.55;;
25846;SDS011;13676;50.168;8.568;2022-12-10T07:42:41;18.95;;;12.07;;
25846;SDS011;13676;50.168;8.568;2022-12-10T07:45:06;16.55;;;12.35;;
25846;SDS011;13676;50.168;8.568;2022-12-10T07:47:34;19.33;;;12.15;;
25846;SDS011;13676;50.168;8.568;2022-12-10T07:50:04;18.00;;;12.32;;
25846;SDS011;13676;50.168;8.568;2022-12-10T07:52:30;19.65;;;13.30;;
25846;SDS011;13676;50.168;8.568;2022-12-10T07:54:55;17.25;;;12.07;;
25846;SDS011;13676;50.168;8.568;2022-12-10T07:57:20;17.90;;;12.32;;
25846;SDS011;13676;50.168;8.568;2022-12-10T07:59:46;17.08;;;11.82;;
25846;SDS011;13676;50.168;8.568;2022-12-10T08:02:11;16.95;;;11.55;;
25846;SDS011;13676;50.168;8.568;2022-12-10T08:04:37;20.33;;;12.95;;
25846;SDS011;13676;50.168;8.568;2022-12-10T08:07:02;19.52;;;12.32;;
25846;SDS011;13676;50.168;8.568;2022-12-10T08:09:28;15.13;;;11.00;;
25846;SDS011;13676;50.168;8.568;2022-12-10T08:11:53;14.65;;;10.18;;
25846;SDS011;13676;50.168;8.568;2022-12-10T08:14:18;18.35;;;12.23;;
25846;SDS011;13676;50.168;8.568;2022-12-10T08:16:44;18.63;;;11.50;;
25846;SDS011;13676;50.168;8.568;2022-12-10T08:19:09;17.33;;;11.63;;
25846;SDS011;13676;50.168;8.568;2022-12-10T08:21:34;17.52;;;12.07;;
25846;SDS011;13676;50.168;8.568;2022-12-10T08:24:00;14.05;;;9.98;;
25846;SDS011;13676;50.168;8.568;2022-12-10T08:26:27;15.45;;;11.27;;
25846;SDS011;13676;50.168;8.568;2022-12-10T08:28:55;19.20;;;11.68;;
25846;SDS011;13676;50.168;8.568;2022-12-10T08:31:21;16.23;;;11.02;;
25846;SDS011;13676;50.168;8.568;2022-12-10T08:33:48;17.55;;;11.25;;
25846;SDS011;13676;50.168;8.568;2022-12-10T08:36:14;16.67;;;12.30;;
25846;SDS011;13676;50.168;8.568;2022-12-10T08:38:40;14.13;;;10.85;;
25846;SDS011;13676;50.168;8.568;2022-12-10T08:41:10;13.52;;;10.60;;
25846;SDS011;13676;50.168;8.568;2022-12-10T08:43:35;15.05;;;10.65;;
25846;SDS011;13676;50.168;8.568;2022-12-10T08:46:01;17.73;;;11.05;;
25846;SDS011;13676;50.168;8.568;2022-12-10T08:48:27;14.65;;;10.25;;
25846;SDS011;13676;50.168;8.568;2022-12-10T08:50:52;13.27;;;9.90;;
25846;SDS011;13676;50.168;8.568;2022-12-10T08:53:18;14.13;;;10.15;;
25846;SDS011;13676;50.168;8.568;2022-12-10T08:55:43;13.75;;;9.57;;
25846;SDS011;13676;50.168;8.568;2022-12-10T08:58:08;13.85;;;10.00;;
25846;SDS011;13676;50.168;8.568;2022-12-10T09:00:34;14.90;;;11.02;;
25846;SDS011;13676;50.168;8.568;2022-12-10T09:03:00;15.55;;;11.52;;
25846;SDS011;13676;50.168;8.568;2022-12-10T09:05:26;12.95;;;9.15;;
25846;SDS011;13676;50.168;8.568;2022-12-10T09:07:51;13.50;;;10.30;;
25846;SDS011;13676;50.168;8.568;2022-12-10T09:10:16;12.18;;;9.50;;
25846;SDS011;13676;50.168;8.568;2022-12-10T09:12:42;13.55;;;10.45;;
25846;SDS011;13676;50.168;8.568;2022-12-10T09:15:08;16.42;;;10.63;;
25846;SDS011;13676;50.168;8.568;2022-12-10T09:17:35;12.00;;;9.38;;
25846;SDS011;13676;50.168;8.568;2022-12-10T09:20:01;14.40;;;10.02;;
25846;SDS011;13676;50.168;8.568;2022-12-10T09:22:26;14.43;;;10.30;;
25846;SDS011;13676;50.168;8.568;2022-12-10T09:24:51;13.90;;;10.52;;
25846;SDS011;13676;50.168;8.568;2022-12-10T09:27:17;11.75;;;8.95;;
25846;SDS011;13676;50.168;8.568;2022-12-10T09:29:42;12.25;;;9.77;;
25846;SDS011;13676;50.168;8.568;2022-12-10T09:32:07;11.98;;;9.50;;
25846;SDS011;13676;50.168;8.568;2022-12-10T09:34:33;15.60;;;10.38;;
25846;SDS011;13676;50.168;8.568;2022-12-10T09:36:58;14.23;;;9.52;;
25846;SDS011;13676;50.168;8.568;2022-12-10T09:39:23;13.63;;;9.90;;
25846;SDS011;13676;50.168;8.568;2022-12-10T09:41:56;14.75;;;10.45;;
25846;SDS011;13676;50.168;8.568;2022-12-10T09:46:56;14.05;;;10.18;;
25846;SDS011;13676;50.168;8.568;2022-12-10T09:52:17;13.48;;;9.82;;
25846;SDS011;13676;50.168;8.568;2022-12-10T09:54:45;11.95;;;8.55;;
25846;SDS011;13676;50.168;8.568;2022-12-10T09:57:33;15.40;;;9.73;;
25846;SDS011;13676;50.168;8.568;2022-12-10T10:02:35;11.48;;;8.75;;
25846;SDS011;13676;50.168;8.568;2022-12-10T10:05:09;11.70;;;8.60;;
25846;SDS011;13676;50.168;8.568;2022-12-10T10:07:38;11.32;;;8.27;;
25846;SDS011;13676;50.168;8.568;2022-12-10T10:10:16;9.98;;;8.38;;
25846;SDS011;13676;50.168;8.568;2022-12-10T10:12:46;12.77;;;9.50;;
25846;SDS011;13676;50.168;8.568;2022-12-10T10:15:13;12.45;;;9.30;;
25846;SDS011;13676;50.168;8.568;2022-12-10T10:17:40;11.25;;;8.43;;
25846;SDS011;13676;50.168;8.568;2022-12-10T10:20:10;12.02;;;8.65;;
25846;SDS011;13676;50.168;8.568;2022-12-10T10:22:36;13.30;;;9.45;;
25846;SDS011;13676;50.168;8.568;2022-12-10T10:25:01;12.27;;;8.95;;
25846;SDS011;13676;50.168;8.568;2022-12-10T10:27:28;14.32;;;10.27;;
25846;SDS011;13676;50.168;8.568;2022-12-10T10:29:56;14.68;;;9.20;;
25846;SDS011;13676;50.168;8.568;2022-12-10T10:32:24;12.75;;;9.77;;
25846;SDS011;13676;50.168;8.568;2022-12-10T10:35:21;14.70;;;9.73;;
25846;SDS011;13676;50.168;8.568;2022-12-10T10:37:49;13.35;;;10.15;;
25846;SDS011;13676;50.168;8.568;2022-12-10T10:40:21;15.63;;;11.02;;
25846;SDS011;13676;50.168;8.568;2022-12-10T10:42:47;14.80;;;10.48;;
25846;SDS011;13676;50.168;8.568;2022-12-10T10:45:32;15.65;;;10.85;;
25846;SDS011;13676;50.168;8.568;2022-12-10T10:48:03;17.10;;;10.73;;
25846;SDS011;13676;50.168;8.568;2022-12-10T10:50:30;15.02;;;10.90;;
25846;SDS011;13676;50.168;8.568;2022-12-10T10:52:55;16.70;;;10.90;;
25846;SDS011;13676;50.168;8.568;2022-12-10T10:55:30;19.55;;;11.82;;
25846;SDS011;13676;50.168;8.568;2022-12-10T10:58:00;15.20;;;10.73;;
25846;SDS011;13676;50.168;8.568;2022-12-10T11:00:26;15.25;;;10.00;;
25846;SDS011;13676;50.168;8.568;2022-12-10T11:02:51;14.35;;;11.18;;
25846;SDS011;13676;50.168;8.568;2022-12-10T11:05:20;14.93;;;10.52;;
25846;SDS011;13676;50.168;8.568;2022-12-10T11:08:00;17.77;;;12.38;;
25846;SDS011;13676;50.168;8.568;2022-12-10T11:10:28;15.60;;;10.40;;
25846;SDS011;13676;50.168;8.568;2022-12-10T11:12:55;17.00;;;11.48;;
25846;SDS011;13676;50.168;8.568;2022-12-10T11:17:58;16.67;;;12.27;;
25846;SDS011;13676;50.168;8.568;2022-12-10T11:22:52;23.85;;;15.20;;
25846;SDS011;13676;50.168;8.568;2022-12-10T11:25:20;16.73;;;12.13;;
25846;SDS011;13676;50.168;8.568;2022-12-10T11:27:58;17.98;;;11.93;;
25846;SDS011;13676;50.168;8.568;2022-12-10T11:30:42;16.33;;;13.13;;
25846;SDS011;13676;50.168;8.568;2022-12-10T11:39:02;13.55;;;9.65;;
25846;SDS011;13676;50.168;8.568;2022-12-10T11:41:57;17.38;;;12.73;;
25846;SDS011;13676;50.168;8.568;2022-12-10T11:44:34;16.85;;;12.55;;
25846;SDS011;13676;50.168;8.568;2022-12-10T11:47:18;16.65;;;10.93;;
25846;SDS011;13676;50.168;8.568;2022-12-10T11:55:41;19.35;;;13.13;;
25846;SDS011;13676;50.168;8.568;2022-12-10T12:09:13;15.77;;;10.82;;
25846;SDS011;13676;50.168;8.568;2022-12-10T12:14:43;14.40;;;11.00;;
25846;SDS011;13676;50.168;8.568;2022-12-10T12:19:44;13.20;;;10.32;;
25846;SDS011;13676;50.168;8.568;2022-12-10T12:22:18;13.80;;;10.48;;
25846;SDS011;13676;50.168;8.568;2022-12-10T12:24:45;16.83;;;10.77;;
25846;SDS011;13676;50.168;8.568;2022-12-10T12:27:22;14.20;;;10.45;;
25846;SDS011;13676;50.168;8.568;2022-12-10T12:32:38;14.40;;;10.90;;
25846;SDS011;13676;50.168;8.568;2022-12-10T12:35:12;15.25;;;10.63;;
25846;SDS011;13676;50.168;8.568;2022-12-10T12:37:46;14.57;;;10.68;;
25846;SDS011;13676;50.168;8.568;2022-12-10T12:40:21;14.63;;;9.27;;
25846;SDS011;13676;50.168;8.568;2022-12-10T12:45:33;16.38;;;11.35;;
25846;SDS011;13676;50.168;8.568;2022-12-10T12:48:19;13.97;;;10.23;;
25846;SDS011;13676;50.168;8.568;2022-12-10T12:53:35;15.43;;;9.98;;
25846;SDS011;13676;50.168;8.568;2022-12-10T12:56:14;14.95;;;9.77;;
25846;SDS011;13676;50.168;8.568;2022-12-10T13:04:09;13.18;;;9.75;;
25846;SDS011;13676;50.168;8.568;2022-12-10T13:06:36;15.05;;;9.65;;
25846;SDS011;13676;50.168;8.568;2022-12-10T13:11:59;12.98;;;10.00;;
25846;SDS011;13676;50.168;8.568;2022-12-10T13:17:24;12.95;;;9.50;;
25846;SDS011;13676;50.168;8.568;2022-12-10T13:19:53;16.27;;;11.75;;
25846;SDS011;13676;50.168;8.568;2022-12-10T13:25:15;14.23;;;9.85;;
25846;SDS011;13676;50.168;8.568;2022-12-10T13:27:42;14.65;;;9.85;;
25846;SDS011;13676;50.168;8.568;2022-12-10T13:33:11;13.13;;;9.82;;
25846;SDS011;13676;50.168;8.568;2022-12-10T13:35:49;11.80;;;9.02;;
25846;SDS011;13676;50.168;8.568;2022-12-10T13:38:23;11.25;;;8.63;;
25846;SDS011;13676;50.168;8.568;2022-12-10T13:40:58;13.38;;;9.95;;
25846;SDS011;13676;50.168;8.568;2022-12-10T13:43:51;14.50;;;9.57;;
25846;SDS011;13676;50.168;8.568;2022-12-10T13:46:55;14.48;;;9.25;;
25846;SDS011;13676;50.168;8.568;2022-12-10T13:49:34;14.75;;;10.23;;
25846;SDS011;13676;50.168;8.568;2022-12-10T13:52:14;11.57;;;8.70;;
25846;SDS011;13676;50.168;8.568;2022-12-10T13:54:47;16.80;;;8.90;;
25846;SDS011;13676;50.168;8.568;2022-12-10T13:57:46;16.15;;;10.00;;
25846;SDS011;13676;50.168;8.568;2022-12-10T14:01:42;13.68;;;9.77;;
25846;SDS011;13676;50.168;8.568;2022-12-10T14:21:25;14.05;;;9.43;;
25846;SDS011;13676;50.168;8.568;2022-12-10T14:23:50;15.95;;;10.13;;
25846;SDS011;13676;50.168;8.568;2022-12-10T14:28:48;14.77;;;9.80;;
25846;SDS011;13676;50.168;8.568;2022-12-10T14:33:59;16.10;;;10.20;;
25846;SDS011;13676;50.168;8.568;2022-12-10T14:36:32;12.27;;;9.48;;
25846;SDS011;13676;50.168;8.568;2022-12-10T14:38:59;13.73;;;10.10;;
25846;SDS011;13676;50.168;8.568;2022-12-10T14:41:26;12.90;;;9.43;;
25846;SDS011;13676;50.168;8.568;2022-12-10T14:43:57;10.90;;;8.18;;
25846;SDS011;13676;50.168;8.568;2022-12-10T14:46:41;12.45;;;9.13;;
25846;SDS011;13676;50.168;8.568;2022-12-10T14:49:13;20.48;;;12.93;;
25846;SDS011;13676;50.168;8.568;2022-12-10T14:51:41;14.68;;;10.65;;
25846;SDS011;13676;50.168;8.568;2022-12-10T14:54:23;16.10;;;10.15;;
25846;SDS011;13676;50.168;8.568;2022-12-10T14:57:33;17.67;;;11.55;;
25846;SDS011;13676;50.168;8.568;2022-12-10T15:02:42;13.65;;;9.98;;
25846;SDS011;13676;50.168;8.568;2022-12-10T15:05:28;14.07;;;9.88;;
25846;SDS011;13676;50.168;8.568;2022-12-10T15:07:56;15.45;;;10.30;;
25846;SDS011;13676;50.168;8.568;2022-12-10T15:10:26;14.00;;;10.07;;
25846;SDS011;13676;50.168;8.568;2022-12-10T15:12:54;12.07;;;9.40;;
25846;SDS011;13676;50.168;8.568;2022-12-10T15:15:24;13.98;;;10.93;;
25846;SDS011;13676;50.168;8.568;2022-12-10T15:18:03;13.27;;;9.60;;
25846;SDS011;13676;50.168;8.568;2022-12-10T15:20:39;13.82;;;9.70;;
25846;SDS011;13676;50.168;8.568;2022-12-10T15:28:38;15.23;;;10.52;;
25846;SDS011;13676;50.168;8.568;2022-12-10T15:33:38;15.88;;;11.80;;
25846;SDS011;13676;50.168;8.568;2022-12-10T15:36:11;15.90;;;11.15;;
25846;SDS011;13676;50.168;8.568;2022-12-10T15:38:44;16.70;;;10.90;;
25846;SDS011;13676;50.168;8.568;2022-12-10T15:44:06;13.85;;;9.68;;
25846;SDS011;13676;50.168;8.568;2022-12-10T15:49:27;12.65;;;8.35;;
25846;SDS011;13676;50.168;8.568;2022-12-10T15:51:52;13.60;;;9.73;;
25846;SDS011;13676;50.168;8.568;2022-12-10T15:54:22;12.32;;;8.82;;
25846;SDS011;13676;50.168;8.568;2022-12-10T15:56:56;11.95;;;9.18;;
25846;SDS011;13676;50.168;8.568;2022-12-10T15:59:21;14.27;;;9.68;;
25846;SDS011;13676;50.168;8.568;2022-12-10T16:01:46;16.08;;;9.77;;
25846;SDS011;13676;50.168;8.568;2022-12-10T16:04:12;13.07;;;9.52;;
25846;SDS011;13676;50.168;8.568;2022-12-10T16:06:38;13.18;;;9.27;;
25846;SDS011;13676;50.168;8.568;2022-12-10T16:09:04;14.07;;;10.65;;
25846;SDS011;13676;50.168;8.568;2022-12-10T16:11:29;17.83;;;11.60;;
25846;SDS011;13676;50.168;8.568;2022-12-10T16:14:01;24.05;;;13.43;;
25846;SDS011;13676;50.168;8.568;2022-12-10T16:16:28;21.70;;;13.02;;
25846;SDS011;13676;50.168;8.568;2022-12-10T16:18:55;19.13;;;12.43;;
25846;SDS011;13676;50.168;8.568;2022-12-10T16:21:21;20.55;;;11.70;;
25846;SDS011;13676;50.168;8.568;2022-12-10T16:23:48;20.02;;;11.65;;
25846;SDS011;13676;50.168;8.568;2022-12-10T16:26:20;16.00;;;11.15;;
25846;SDS011;13676;50.168;8.568;2022-12-10T16:28:48;19.05;;;11.90;;
25846;SDS011;13676;50.168;8.568;2022-12-10T16:31:18;18.23;;;12.25;;
25846;SDS011;13676;50.168;8.568;2022-12-10T16:33:44;15.40;;;11.85;;
25846;SDS011;13676;50.168;8.568;2022-12-10T16:36:11;20.03;;;12.57;;
25846;SDS011;13676;50.168;8.568;2022-12-10T16:38:38;24.10;;;14.75;;
25846;SDS011;13676;50.168;8.568;2022-12-10T16:41:09;20.55;;;13.35;;
25846;SDS011;13676;50.168;8.568;2022-12-10T16:43:42;24.95;;;15.57;;
25846;SDS011;13676;50.168;8.568;2022-12-10T16:46:09;20.85;;;14.10;;
25846;SDS011;13676;50.168;8.568;2022-12-10T16:48:37;16.25;;;12.57;;